Time;durP1;ratioP1;P1;durP2;ratioP2;P2;SDS_P1;SDS_P2;PMS_P1;PMS_P2;Temp;Humidity;BMP_temperature;BMP_pressure;BME280_temperature;BME280_humidity;BME280_pressure;Samples;Min_cycle;Max_cycle;Signal;HPM_P1;HPM_P2
2023/04/13 00:00:26;;;;;;;5.20;4.05;;;10.40;99.90;;;;;;4966568;28;20031;-66
2023/04/13 00:02:55;;;;;;;6.30;3.63;;;10.30;99.90;;;;;;4968615;28;20141;-65
2023/04/13 00:05:21;;;;;;;5.43;4.22;;;10.30;99.90;;;;;;4968212;28;20038;-65
2023/04/13 00:07:48;;;;;;;4.85;3.78;;;10.20;99.90;;;;;;4973313;28;20100;-66
2023/04/13 00:10:17;;;;;;;4.80;3.90;;;10.10;99.90;;;;;;4973855;28;20122;-65
2023/04/13 00:12:46;;;;;;;7.07;4.65;;;10.10;99.90;;;;;;4964392;28;20785;-66
2023/04/13 00:15:18;;;;;;;7.40;4.05;;;10.10;99.90;;;;;;4967278;28;20049;-66
2023/04/13 00:17:46;;;;;;;4.95;3.63;;;10.00;99.90;;;;;;4965433;28;20403;-66
2023/04/13 00:20:13;;;;;;;3.92;3.50;;;9.90;99.90;;;;;;4969663;28;20062;-66
2023/04/13 00:22:43;;;;;;;5.15;3.95;;;9.90;99.90;;;;;;4971424;28;20035;-66
2023/04/13 00:25:11;;;;;;;6.30;3.85;;;9.80;99.90;;;;;;4966288;28;20178;-66
2023/04/13 00:27:41;;;;;;;5.03;3.95;;;9.70;99.90;;;;;;4967473;28;20772;-66
2023/04/13 00:30:15;;;;;;;4.90;3.85;;;9.70;99.90;;;;;;4949364;28;20105;-66
2023/04/13 00:32:42;;;;;;;6.55;4.50;;;9.60;99.90;;;;;;4977302;28;20030;-65
2023/04/13 00:35:23;;;;;;;5.35;4.55;;;9.60;99.90;;;;;;4954663;28;20521;-66
2023/04/13 00:37:50;;;;;;;6.72;5.30;;;9.50;99.90;;;;;;4973383;28;20389;-66
2023/04/13 00:40:17;;;;;;;7.20;4.78;;;9.60;99.90;;;;;;4974544;28;20046;-66
2023/04/13 00:42:47;;;;;;;8.18;5.20;;;9.50;99.90;;;;;;4971315;28;20042;-65
2023/04/13 00:45:14;;;;;;;7.38;5.10;;;9.50;99.90;;;;;;4959567;28;20039;-65
2023/04/13 00:47:41;;;;;;;6.85;5.07;;;9.40;99.90;;;;;;4955123;28;20482;-65
2023/04/13 00:50:08;;;;;;;6.53;5.07;;;9.40;99.90;;;;;;4957163;28;20030;-66
2023/04/13 00:52:38;;;;;;;5.47;4.28;;;9.30;99.90;;;;;;4962457;28;20026;-66
2023/04/13 00:55:05;;;;;;;6.07;4.50;;;9.30;99.90;;;;;;4953158;28;20058;-66
2023/04/13 00:57:32;;;;;;;6.50;4.97;;;9.20;99.90;;;;;;4975617;28;20046;-66
2023/04/13 00:59:58;;;;;;;7.30;5.43;;;9.20;99.90;;;;;;4954659;28;20035;-66
2023/04/13 01:02:25;;;;;;;10.20;6.68;;;9.20;99.90;;;;;;4975073;28;20117;-65
2023/04/13 01:04:55;;;;;;;13.77;7.03;;;9.10;99.90;;;;;;4953796;28;20037;-64
2023/04/13 01:07:47;;;;;;;11.75;7.63;;;9.00;99.90;;;;;;4954106;28;20030;-65
2023/04/13 01:10:17;;;;;;;11.07;6.90;;;8.70;99.90;;;;;;4962823;28;20563;-65
2023/04/13 01:13:06;;;;;;;11.52;7.03;;;8.60;99.90;;;;;;4963720;28;20063;-66
2023/04/13 01:15:38;;;;;;;14.18;7.25;;;8.70;99.90;;;;;;4953441;28;20038;-66
2023/04/13 01:18:08;;;;;;;9.25;6.28;;;8.80;99.90;;;;;;4953791;28;20762;-66
2023/04/13 01:20:37;;;;;;;11.27;6.72;;;8.80;99.90;;;;;;4959623;28;20030;-66
2023/04/13 01:23:31;;;;;;;9.65;5.88;;;8.80;99.90;;;;;;4975119;28;20034;-66
2023/04/13 01:26:02;;;;;;;8.95;5.93;;;8.90;99.90;;;;;;4957943;28;20046;-68
2023/04/13 01:28:29;;;;;;;9.63;6.22;;;8.90;99.90;;;;;;4975540;28;20088;-65
2023/04/13 01:30:59;;;;;;;17.13;5.90;;;8.90;99.90;;;;;;4956256;28;20098;-66
2023/04/13 01:33:29;;;;;;;7.63;4.95;;;8.90;99.90;;;;;;4959929;28;20093;-67
2023/04/13 01:35:59;;;;;;;6.57;5.10;;;8.80;99.90;;;;;;4940454;28;20037;-66
2023/04/13 01:38:25;;;;;;;6.47;4.35;;;8.80;99.90;;;;;;4975745;28;20038;-66
2023/04/13 01:40:53;;;;;;;6.72;4.55;;;8.80;99.90;;;;;;4963135;28;20376;-66
2023/04/13 01:43:20;;;;;;;8.27;4.60;;;8.80;99.90;;;;;;4977707;28;20121;-66
2023/04/13 01:46:08;;;;;;;9.23;5.63;;;8.80;99.90;;;;;;4957874;28;20118;-66
2023/04/13 01:48:52;;;;;;;6.03;4.30;;;8.80;99.90;;;;;;4956597;28;20719;-66
2023/04/13 01:51:37;;;;;;;11.43;5.30;;;8.70;99.90;;;;;;4975059;28;20745;-66
2023/04/13 01:54:13;;;;;;;10.02;5.25;;;8.70;99.90;;;;;;4954779;28;20599;-66
2023/04/13 01:56:42;;;;;;;7.28;5.00;;;8.60;99.90;;;;;;4957978;28;20035;-66
2023/04/13 01:59:10;;;;;;;7.65;4.40;;;8.60;99.90;;;;;;4957184;28;20550;-66
2023/04/13 02:01:38;;;;;;;6.95;4.47;;;8.60;99.90;;;;;;4957649;28;20125;-66
2023/04/13 02:04:06;;;;;;;7.47;4.10;;;8.60;99.90;;;;;;4973373;28;20034;-66
2023/04/13 02:06:32;;;;;;;6.82;4.40;;;8.60;99.90;;;;;;4957487;28;20034;-66
2023/04/13 02:09:11;;;;;;;8.48;4.30;;;8.60;99.90;;;;;;4973867;28;20065;-66
2023/04/13 02:11:37;;;;;;;5.50;3.67;;;8.50;99.90;;;;;;4963737;28;20030;-66
2023/04/13 02:14:04;;;;;;;7.57;4.30;;;8.50;99.90;;;;;;4963045;28;20035;-65
2023/04/13 02:16:31;;;;;;;4.95;3.17;;;8.50;99.90;;;;;;4961943;28;20065;-65
2023/04/13 02:18:57;;;;;;;5.57;3.85;;;8.50;99.90;;;;;;4958646;28;20034;-65
2023/04/13 02:21:24;;;;;;;5.70;3.72;;;8.50;99.90;;;;;;4956152;28;20113;-65
2023/04/13 02:23:51;;;;;;;7.25;3.45;;;8.50;99.90;;;;;;4961860;28;20027;-65
2023/04/13 02:26:17;;;;;;;6.30;3.80;;;8.50;99.90;;;;;;4956273;28;20038;-65
2023/04/13 02:28:44;;;;;;;5.47;3.25;;;8.50;99.90;;;;;;4956464;28;20110;-65
2023/04/13 02:31:15;;;;;;;4.85;3.30;;;8.40;99.90;;;;;;4974546;28;20046;-65
2023/04/13 02:33:42;;;;;;;5.57;3.63;;;8.40;99.90;;;;;;4953951;28;20042;-64
2023/04/13 02:36:08;;;;;;;5.10;3.38;;;8.40;99.90;;;;;;4960710;28;20092;-65
2023/04/13 02:38:37;;;;;;;7.30;3.85;;;8.30;99.90;;;;;;4952971;28;20029;-65
2023/04/13 02:41:21;;;;;;;8.52;3.80;;;8.30;99.90;;;;;;4956300;28;20130;-65
2023/04/13 02:43:49;;;;;;;7.85;3.67;;;8.30;99.90;;;;;;4954389;28;20038;-65
2023/04/13 02:46:15;;;;;;;6.78;3.97;;;8.20;99.90;;;;;;4974884;28;20026;-65
2023/04/13 02:48:41;;;;;;;5.30;3.70;;;8.10;99.90;;;;;;4954884;28;20031;-65
2023/04/13 02:51:07;;;;;;;8.52;3.40;;;8.10;99.90;;;;;;4959550;28;20041;-65
2023/04/13 02:53:37;;;;;;;4.20;2.92;;;8.00;99.90;;;;;;4959749;28;20031;-65
2023/04/13 02:56:06;;;;;;;5.93;3.30;;;8.00;99.90;;;;;;4957592;28;20040;-65
2023/04/13 02:58:32;;;;;;;8.07;3.63;;;7.90;99.90;;;;;;4961592;28;20038;-65
2023/04/13 03:01:03;;;;;;;4.95;4.07;;;7.90;99.90;;;;;;4956249;28;20140;-65
2023/04/13 03:03:29;;;;;;;6.00;3.50;;;7.80;99.90;;;;;;4953346;28;20040;-65
2023/04/13 03:05:56;;;;;;;8.07;4.00;;;7.80;99.90;;;;;;4954797;28;20141;-65
2023/04/13 03:08:34;;;;;;;8.32;3.95;;;7.70;99.90;;;;;;4961423;28;20621;-65
2023/04/13 03:11:19;;;;;;;6.57;3.33;;;7.70;99.90;;;;;;4953296;28;20030;-65
2023/04/13 03:14:06;;;;;;;5.60;2.97;;;7.70;99.90;;;;;;4975648;28;20870;-65
2023/04/13 03:16:33;;;;;;;6.07;3.40;;;7.70;99.90;;;;;;4957624;28;20040;-65
2023/04/13 03:19:00;;;;;;;5.40;3.47;;;7.70;99.90;;;;;;4953177;28;20034;-65
2023/04/13 03:21:26;;;;;;;4.75;3.08;;;7.70;99.90;;;;;;4954208;28;20574;-65
2023/04/13 03:24:01;;;;;;;7.50;4.10;;;7.70;99.90;;;;;;4958711;28;20588;-65
2023/04/13 03:26:27;;;;;;;5.45;3.20;;;7.80;99.90;;;;;;4957135;28;20030;-65
2023/04/13 03:28:56;;;;;;;7.93;3.45;;;7.80;99.90;;;;;;4961384;28;20030;-65
2023/04/13 03:31:22;;;;;;;4.95;3.45;;;7.80;99.90;;;;;;4961152;28;20022;-65
2023/04/13 03:33:50;;;;;;;4.95;2.95;;;7.80;99.90;;;;;;4956754;28;20035;-65
2023/04/13 03:36:16;;;;;;;9.52;3.22;;;7.80;99.90;;;;;;4974128;28;20049;-65
2023/04/13 03:38:42;;;;;;;7.68;3.05;;;7.80;99.90;;;;;;4959459;28;20026;-65
2023/04/13 03:41:08;;;;;;;7.68;3.75;;;7.80;99.90;;;;;;4960258;28;20774;-66
2023/04/13 03:43:34;;;;;;;6.45;3.38;;;7.90;99.90;;;;;;4956780;28;20061;-65
2023/04/13 03:46:08;;;;;;;7.35;3.65;;;7.80;99.90;;;;;;4964224;28;20101;-65
2023/04/13 03:48:34;;;;;;;5.07;2.90;;;7.80;99.90;;;;;;4962648;28;20038;-66
2023/04/13 03:51:03;;;;;;;10.02;3.53;;;7.80;99.90;;;;;;4959225;28;20037;-65
2023/04/13 03:53:40;;;;;;;5.15;3.10;;;7.80;99.90;;;;;;4961299;28;20034;-65
2023/04/13 03:56:07;;;;;;;5.72;2.80;;;7.80;99.90;;;;;;4962166;28;20038;-66
2023/04/13 03:58:34;;;;;;;6.03;3.17;;;7.80;99.90;;;;;;4961109;28;20026;-65
2023/04/13 04:01:01;;;;;;;4.65;3.08;;;7.80;99.90;;;;;;4961090;28;20799;-65
2023/04/13 04:03:39;;;;;;;8.20;3.75;;;7.80;99.90;;;;;;4952476;28;20030;-65
2023/04/13 04:06:07;;;;;;;6.68;3.80;;;7.70;99.90;;;;;;4957688;28;20689;-65
2023/04/13 04:08:35;;;;;;;6.47;3.40;;;7.70;99.90;;;;;;4965538;28;20019;-65
2023/04/13 04:11:05;;;;;;;8.18;4.10;;;7.70;99.90;;;;;;4959882;28;20112;-65
2023/04/13 04:13:32;;;;;;;8.25;4.28;;;7.70;99.90;;;;;;4964209;28;20140;-65
2023/04/13 04:16:03;;;;;;;7.00;3.55;;;7.70;99.90;;;;;;4960818;28;20949;-65
2023/04/13 04:18:34;;;;;;;6.97;4.15;;;7.70;99.90;;;;;;4977664;28;20046;-65
2023/04/13 04:21:03;;;;;;;8.20;5.05;;;7.60;99.90;;;;;;4956518;28;20035;-65
2023/04/13 04:23:29;;;;;;;6.18;4.32;;;7.60;99.90;;;;;;4964652;28;20469;-65
2023/04/13 04:26:01;;;;;;;9.65;4.07;;;7.60;99.90;;;;;;4959341;28;20033;-65
2023/04/13 04:28:39;;;;;;;8.10;4.18;;;7.60;99.90;;;;;;4962188;28;20079;-65
2023/04/13 04:31:10;;;;;;;6.90;4.53;;;7.60;99.90;;;;;;4980520;28;20054;-65
2023/04/13 04:33:38;;;;;;;8.85;5.22;;;7.60;99.90;;;;;;4977805;28;20035;-65
2023/04/13 04:36:13;;;;;;;8.93;4.88;;;7.60;99.90;;;;;;4959145;28;20034;-65
2023/04/13 04:38:48;;;;;;;8.82;5.43;;;7.60;99.90;;;;;;4961700;28;20854;-65
2023/04/13 04:41:19;;;;;;;12.25;5.80;;;7.70;99.90;;;;;;4956987;28;20121;-65
2023/04/13 04:43:48;;;;;;;9.85;5.60;;;7.70;99.90;;;;;;4963523;28;20038;-65
2023/04/13 04:46:15;;;;;;;11.68;6.07;;;7.70;99.90;;;;;;4962005;28;20030;-65
2023/04/13 04:48:46;;;;;;;9.02;5.80;;;7.70;99.90;;;;;;4956354;28;20022;-65
2023/04/13 04:51:13;;;;;;;11.02;5.78;;;7.60;99.90;;;;;;4972800;28;20033;-65
2023/04/13 04:53:39;;;;;;;10.43;5.45;;;7.70;99.90;;;;;;4958607;28;20034;-65
2023/04/13 04:56:07;;;;;;;8.32;5.32;;;7.70;99.90;;;;;;4960963;28;20030;-65
2023/04/13 04:58:44;;;;;;;7.93;5.45;;;7.80;99.90;;;;;;4963117;28;20041;-65
2023/04/13 05:01:11;;;;;;;9.35;5.43;;;7.80;99.90;;;;;;4975404;28;20223;-65
2023/04/13 05:03:38;;;;;;;10.82;5.03;;;7.80;99.90;;;;;;4959794;28;20034;-65
2023/04/13 05:06:16;;;;;;;9.65;5.00;;;7.90;99.90;;;;;;4957911;28;20022;-65
2023/04/13 05:08:43;;;;;;;8.32;4.85;;;7.90;99.90;;;;;;4959256;28;20149;-65
2023/04/13 05:11:10;;;;;;;7.90;5.00;;;7.90;99.90;;;;;;4958338;28;20034;-65
2023/04/13 05:13:36;;;;;;;7.80;5.05;;;8.00;99.90;;;;;;4959687;28;20493;-65
2023/04/13 05:16:10;;;;;;;8.15;4.32;;;8.00;99.90;;;;;;4960097;28;20121;-65
2023/04/13 05:18:45;;;;;;;8.05;4.32;;;8.10;99.90;;;;;;4952849;28;20037;-65
2023/04/13 05:21:18;;;;;;;6.05;3.72;;;8.10;99.90;;;;;;4964419;28;20033;-65
2023/04/13 05:23:51;;;;;;;7.13;4.82;;;8.10;99.90;;;;;;4959556;28;20122;-65
2023/04/13 05:26:19;;;;;;;6.63;4.20;;;8.10;99.90;;;;;;4963614;28;20087;-65
2023/04/13 05:28:45;;;;;;;7.03;4.65;;;8.20;99.90;;;;;;4961258;28;20073;-65
2023/04/13 05:31:11;;;;;;;8.95;4.45;;;8.20;99.90;;;;;;4960850;28;20031;-65
2023/04/13 05:33:41;;;;;;;6.78;3.88;;;8.20;99.90;;;;;;4962124;28;20062;-65
2023/04/13 05:36:07;;;;;;;7.57;4.20;;;8.30;99.90;;;;;;4976902;28;20134;-65
2023/04/13 05:38:33;;;;;;;7.28;4.10;;;8.30;99.90;;;;;;4976749;28;20570;-65
2023/04/13 05:41:01;;;;;;;6.05;3.67;;;8.30;99.90;;;;;;4958030;28;20104;-65
2023/04/13 05:43:30;;;;;;;6.20;3.65;;;8.30;99.90;;;;;;4960070;28;20034;-65
2023/04/13 05:45:56;;;;;;;3.67;3.08;;;8.20;99.90;;;;;;4958586;28;20600;-65
2023/04/13 05:48:22;;;;;;;4.85;3.10;;;8.30;99.90;;;;;;4973474;28;20054;-65
2023/04/13 05:50:58;;;;;;;4.72;2.92;;;8.30;99.90;;;;;;4955280;28;20120;-65
2023/04/13 05:53:27;;;;;;;7.00;3.22;;;8.20;99.90;;;;;;4958566;28;20026;-64
2023/04/13 05:55:55;;;;;;;5.70;3.17;;;8.30;99.90;;;;;;4962935;28;20034;-65
2023/04/13 05:58:20;;;;;;;14.45;3.42;;;8.40;99.90;;;;;;4954870;28;20042;-65
2023/04/13 06:00:52;;;;;;;7.20;3.38;;;8.40;99.90;;;;;;4957788;28;20035;-65
2023/04/13 06:03:28;;;;;;;6.88;2.58;;;8.40;99.90;;;;;;4961195;28;20026;-65
2023/04/13 06:05:55;;;;;;;6.35;3.30;;;8.40;99.90;;;;;;4975864;28;20034;-66
2023/04/13 06:08:20;;;;;;;6.03;2.90;;;8.40;99.90;;;;;;4962578;28;20298;-65
2023/04/13 06:10:47;;;;;;;5.28;2.55;;;8.40;99.90;;;;;;4964233;28;20479;-65
2023/04/13 06:13:14;;;;;;;5.53;2.72;;;8.40;99.90;;;;;;4962178;28;20031;-65
2023/04/13 06:15:40;;;;;;;4.88;2.60;;;8.40;99.90;;;;;;4959179;28;20638;-65
2023/04/13 06:18:06;;;;;;;5.68;2.42;;;8.40;99.90;;;;;;4974785;28;20034;-65
2023/04/13 06:20:32;;;;;;;3.35;2.10;;;8.50;99.90;;;;;;4963540;28;20038;-65
2023/04/13 06:22:58;;;;;;;4.15;2.17;;;8.60;99.90;;;;;;4963506;28;20038;-65
2023/04/13 06:25:25;;;;;;;2.88;1.75;;;8.70;99.90;;;;;;4964593;28;20034;-65
2023/04/13 06:27:52;;;;;;;4.90;2.10;;;8.70;99.90;;;;;;4962066;28;20026;-65
2023/04/13 06:30:19;;;;;;;2.90;1.60;;;8.80;99.90;;;;;;4958524;28;20038;-65
2023/04/13 06:32:48;;;;;;;3.25;1.50;;;8.80;99.90;;;;;;4956661;28;20031;-65
2023/04/13 06:35:17;;;;;;;4.80;1.98;;;8.90;99.90;;;;;;4956348;28;20857;-65
2023/04/13 06:37:46;;;;;;;3.33;1.67;;;9.00;99.90;;;;;;4961134;28;20034;-65
2023/04/13 06:40:19;;;;;;;2.65;1.70;;;9.00;99.90;;;;;;4960035;28;20034;-65
2023/04/13 06:43:06;;;;;;;3.58;1.67;;;9.00;99.90;;;;;;4973535;28;20069;-65
2023/04/13 06:45:58;;;;;;;4.07;2.10;;;9.00;99.90;;;;;;4972875;28;20046;-65
2023/04/13 06:48:25;;;;;;;2.45;1.60;;;8.90;99.90;;;;;;4952935;28;20040;-65
2023/04/13 06:50:57;;;;;;;4.40;1.30;;;9.00;99.90;;;;;;4955588;28;20062;-65
2023/04/13 06:53:24;;;;;;;4.18;2.38;;;9.00;99.90;;;;;;4961189;28;20536;-66
2023/04/13 06:55:50;;;;;;;2.38;1.50;;;9.00;99.90;;;;;;4957608;28;20097;-65
2023/04/13 06:58:16;;;;;;;2.80;1.40;;;8.90;99.90;;;;;;4954692;28;20035;-65
2023/04/13 07:00:42;;;;;;;2.95;1.58;;;9.00;99.90;;;;;;4961997;28;20610;-65
2023/04/13 07:03:07;;;;;;;5.35;1.55;;;9.00;99.90;;;;;;4976310;28;20040;-65
2023/04/13 07:05:35;;;;;;;3.17;1.50;;;9.10;99.90;;;;;;4961386;28;20037;-65
2023/04/13 07:08:07;;;;;;;1.40;1.20;;;9.10;99.90;;;;;;4970338;28;20061;-65
2023/04/13 07:10:38;;;;;;;2.95;1.33;;;9.30;99.90;;;;;;4953548;28;20061;-65
2023/04/13 07:13:05;;;;;;;3.13;1.30;;;9.40;99.90;;;;;;4946963;28;20026;-65
2023/04/13 07:15:31;;;;;;;4.15;1.25;;;9.60;99.90;;;;;;4949142;28;20034;-65
2023/04/13 07:17:57;;;;;;;3.60;1.40;;;9.60;99.90;;;;;;4958715;28;20042;-65
2023/04/13 07:20:25;;;;;;;3.55;1.30;;;9.70;99.90;;;;;;4957911;28;20128;-65
2023/04/13 07:22:51;;;;;;;2.38;1.55;;;9.70;99.90;;;;;;4971025;28;20406;-65
2023/04/13 07:25:17;;;;;;;3.10;1.27;;;9.60;99.90;;;;;;4965907;28;20034;-65
2023/04/13 07:27:44;;;;;;;3.55;1.42;;;9.70;99.90;;;;;;4955483;28;20395;-65
2023/04/13 07:30:10;;;;;;;2.70;1.20;;;9.80;99.90;;;;;;4971034;28;20030;-65
2023/04/13 07:32:40;;;;;;;4.53;1.50;;;9.80;99.90;;;;;;4958890;28;20027;-65
2023/04/13 07:35:08;;;;;;;1.90;1.33;;;9.90;99.90;;;;;;4959743;28;20089;-65
2023/04/13 07:37:36;;;;;;;1.50;1.23;;;10.10;99.90;;;;;;4951567;28;20041;-65
2023/04/13 07:40:03;;;;;;;2.08;1.30;;;10.40;99.90;;;;;;4951176;28;20507;-65
2023/04/13 07:42:31;;;;;;;3.42;2.05;;;10.50;99.90;;;;;;4962435;28;20042;-65
2023/04/13 07:44:57;;;;;;;1.58;1.08;;;10.60;99.90;;;;;;4962644;28;20034;-65
2023/04/13 07:47:25;;;;;;;8.90;1.90;;;10.90;99.90;;;;;;4952647;28;20505;-65
2023/04/13 07:49:55;;;;;;;2.35;1.60;;;11.10;99.90;;;;;;4957954;28;20031;-65
2023/04/13 07:52:22;;;;;;;2.15;0.95;;;11.10;99.80;;;;;;4947886;28;20054;-65
2023/04/13 07:54:50;;;;;;;1.50;1.08;;;11.10;99.50;;;;;;4942609;28;20144;-65
2023/04/13 07:57:20;;;;;;;2.05;1.38;;;11.20;99.90;;;;;;4955582;28;20121;-65
2023/04/13 07:59:51;;;;;;;4.70;1.13;;;11.20;99.90;;;;;;4968171;28;20589;-65
2023/04/13 08:02:20;;;;;;;1.40;1.08;;;11.20;99.90;;;;;;4952002;28;20035;-65
2023/04/13 08:04:49;;;;;;;1.42;1.25;;;11.10;99.20;;;;;;4950901;28;20034;-65
2023/04/13 08:07:21;;;;;;;2.70;1.30;;;11.10;98.90;;;;;;4962438;28;20031;-65
2023/04/13 08:09:49;;;;;;;1.75;1.08;;;11.30;98.90;;;;;;4958075;28;20146;-65
2023/04/13 08:12:18;;;;;;;2.35;1.00;;;11.60;99.00;;;;;;4963001;28;20124;-65
2023/04/13 08:14:45;;;;;;;1.48;0.95;;;11.70;97.40;;;;;;4954542;28;20525;-66
2023/04/13 08:17:11;;;;;;;2.97;1.40;;;11.90;97.90;;;;;;4948937;28;20066;-65
2023/04/13 08:19:37;;;;;;;2.55;0.88;;;12.00;96.70;;;;;;4952648;28;20508;-65
2023/04/13 08:22:03;;;;;;;2.10;1.00;;;12.00;96.30;;;;;;4959940;28;20032;-66
2023/04/13 08:24:29;;;;;;;2.65;0.98;;;11.90;97.30;;;;;;4968444;28;20022;-66
2023/04/13 08:26:57;;;;;;;2.20;0.90;;;12.00;96.10;;;;;;4967572;28;20041;-66
2023/04/13 08:29:24;;;;;;;7.15;0.90;;;11.80;96.00;;;;;;4951365;28;20149;-65
2023/04/13 08:31:51;;;;;;;1.75;0.80;;;11.70;95.80;;;;;;4948656;28;20030;-66
2023/04/13 08:34:17;;;;;;;2.15;1.20;;;11.50;96.80;;;;;;4947153;28;20030;-65
2023/04/13 08:36:45;;;;;;;0.70;0.70;;;11.50;96.60;;;;;;4959856;28;20030;-66
2023/04/13 08:39:11;;;;;;;1.45;1.10;;;11.40;96.90;;;;;;4953554;28;20109;-66
2023/04/13 08:41:44;;;;;;;1.80;0.98;;;11.50;97.20;;;;;;4952838;28;20026;-65
2023/04/13 08:44:14;;;;;;;1.92;1.00;;;11.60;96.90;;;;;;4959326;28;20164;-66
2023/04/13 08:46:45;;;;;;;1.52;1.20;;;11.70;96.30;;;;;;4972354;28;20034;-65
2023/04/13 08:49:12;;;;;;;2.50;0.85;;;11.70;96.10;;;;;;4959714;28;20066;-65
2023/04/13 08:51:58;;;;;;;6.10;1.00;;;11.50;96.40;;;;;;4961347;28;20817;-65
2023/04/13 08:54:27;;;;;;;3.00;0.93;;;11.40;96.20;;;;;;4978918;28;20042;-66
2023/04/13 08:56:56;;;;;;;1.50;1.00;;;11.60;95.10;;;;;;4961522;28;20355;-65
2023/04/13 08:59:26;;;;;;;3.28;1.00;;;11.60;94.70;;;;;;4956327;28;20026;-65
2023/04/13 09:01:54;;;;;;;2.13;0.73;;;11.80;95.10;;;;;;4975035;28;20034;-65
2023/04/13 09:04:23;;;;;;;4.43;0.98;;;11.90;95.90;;;;;;4957214;28;20497;-65
2023/04/13 09:06:54;;;;;;;2.88;0.82;;;12.10;94.40;;;;;;4959493;28;20030;-66
2023/04/13 09:09:21;;;;;;;3.72;0.80;;;12.50;93.80;;;;;;4956808;28;20718;-66
2023/04/13 09:11:47;;;;;;;4.30;1.35;;;13.00;92.50;;;;;;4971321;28;20026;-65
2023/04/13 09:14:17;;;;;;;2.00;0.90;;;13.50;92.70;;;;;;4963169;28;20045;-66
2023/04/13 09:16:43;;;;;;;3.42;0.80;;;13.90;91.40;;;;;;4956756;28;20038;-66
2023/04/13 09:19:27;;;;;;;4.72;1.02;;;14.00;89.90;;;;;;4958508;28;20566;-66
2023/04/13 09:21:52;;;;;;;2.78;0.93;;;14.20;90.90;;;;;;4971443;28;20030;-66
2023/04/13 09:24:18;;;;;;;3.28;0.60;;;14.80;86.90;;;;;;4976034;28;20045;-66
2023/04/13 09:26:46;;;;;;;1.45;0.80;;;15.00;86.80;;;;;;4977134;28;20046;-66
2023/04/13 09:29:17;;;;;;;1.90;0.90;;;15.80;85.60;;;;;;4975634;28;20038;-65
2023/04/13 09:31:45;;;;;;;1.92;0.73;;;16.60;78.80;;;;;;4974120;28;20066;-66
2023/04/13 09:34:11;;;;;;;2.58;0.60;;;16.60;75.10;;;;;;4971239;28;20039;-66
2023/04/13 09:36:37;;;;;;;2.03;0.68;;;16.20;77.80;;;;;;4973704;28;20455;-65
2023/04/13 09:39:04;;;;;;;2.90;0.65;;;16.30;78.60;;;;;;4975377;28;20042;-66
2023/04/13 09:41:31;;;;;;;2.33;0.57;;;16.20;76.50;;;;;;4974566;28;20049;-66
2023/04/13 09:44:13;;;;;;;2.97;0.70;;;16.10;74.90;;;;;;4976216;28;20053;-65
2023/04/13 09:46:39;;;;;;;2.65;0.60;;;15.60;76.00;;;;;;4975320;28;20030;-66
2023/04/13 09:49:06;;;;;;;1.67;0.68;;;15.50;75.80;;;;;;4971888;28;20113;-65
2023/04/13 09:51:39;;;;;;;2.13;0.50;;;15.10;75.70;;;;;;4978488;28;20026;-66
2023/04/13 09:54:05;;;;;;;1.60;0.60;;;14.80;76.10;;;;;;4956617;28;20454;-66
2023/04/13 09:56:56;;;;;;;2.15;0.57;;;14.70;76.30;;;;;;4973919;28;20053;-66
2023/04/13 09:59:23;;;;;;;1.40;0.47;;;14.60;79.40;;;;;;4971649;28;20558;-66
2023/04/13 10:01:50;;;;;;;1.48;0.63;;;14.70;77.70;;;;;;4972724;28;20502;-66
2023/04/13 10:04:16;;;;;;;2.45;0.63;;;14.50;77.10;;;;;;4974027;28;20066;-66
2023/04/13 10:06:43;;;;;;;3.92;0.60;;;14.40;80.30;;;;;;4972970;28;20117;-66
2023/04/13 10:09:09;;;;;;;2.25;0.50;;;14.30;79.70;;;;;;4971871;28;20081;-66
2023/04/13 10:11:43;;;;;;;2.80;0.50;;;14.40;78.30;;;;;;4975925;28;20022;-65
2023/04/13 10:14:26;;;;;;;2.45;0.85;;;14.80;77.80;;;;;;4975539;28;20088;-66
2023/04/13 10:17:11;;;;;;;2.45;0.40;;;14.80;74.60;;;;;;4973989;28;20059;-66
2023/04/13 10:19:49;;;;;;;1.73;0.50;;;15.10;78.60;;;;;;4976852;28;20096;-66
2023/04/13 10:22:16;;;;;;;1.10;0.50;;;14.80;75.50;;;;;;4979205;28;20042;-66
2023/04/13 10:24:42;;;;;;;1.20;0.70;;;14.70;73.50;;;;;;4974876;28;20557;-66
2023/04/13 10:27:20;;;;;;;3.22;0.98;;;14.70;77.50;;;;;;4975304;28;20034;-66
2023/04/13 10:29:46;;;;;;;3.45;1.00;;;14.70;74.30;;;;;;4976580;28;20031;-66
2023/04/13 10:32:24;;;;;;;4.35;0.60;;;14.60;75.00;;;;;;4972843;28;20050;-66
2023/04/13 10:34:50;;;;;;;3.03;0.60;;;14.30;78.10;;;;;;4972943;28;20046;-66
2023/04/13 10:37:21;;;;;;;2.67;0.68;;;14.30;77.60;;;;;;4973045;28;20676;-66
2023/04/13 10:39:48;;;;;;;0.57;0.35;;;14.50;76.20;;;;;;4970753;28;20075;-66
2023/04/13 10:42:14;;;;;;;2.65;0.70;;;14.50;76.00;;;;;;4977786;28;20573;-66
2023/04/13 10:44:41;;;;;;;0.93;0.50;;;14.50;76.90;;;;;;4972215;28;20363;-66
2023/04/13 10:47:07;;;;;;;4.65;0.85;;;14.50;78.70;;;;;;4976479;28;20489;-66
2023/04/13 10:49:33;;;;;;;3.35;1.15;;;14.60;76.20;;;;;;4972596;28;20368;-66
2023/04/13 10:51:59;;;;;;;4.53;0.98;;;14.70;76.60;;;;;;4972204;28;20022;-66
2023/04/13 10:54:29;;;;;;;1.95;0.47;;;14.80;73.30;;;;;;4974704;28;20553;-66
2023/04/13 10:57:05;;;;;;;0.95;0.40;;;14.50;73.70;;;;;;4978830;28;20093;-66
2023/04/13 10:59:55;;;;;;;2.47;0.52;;;14.20;74.30;;;;;;4970422;28;20026;-66
2023/04/13 11:02:24;;;;;;;2.38;0.55;;;14.50;75.40;;;;;;4976472;28;20809;-66
2023/04/13 11:04:51;;;;;;;2.00;1.02;;;14.90;74.60;;;;;;4978059;28;20030;-68
2023/04/13 11:07:22;;;;;;;3.47;0.45;;;14.90;71.20;;;;;;4970009;28;20125;-66
2023/04/13 11:09:51;;;;;;;1.08;0.50;;;14.90;74.30;;;;;;4970719;28;20148;-66
2023/04/13 11:12:18;;;;;;;2.25;0.45;;;14.80;72.30;;;;;;4971084;28;20034;-66
2023/04/13 11:14:45;;;;;;;3.30;0.82;;;14.70;73.80;;;;;;4969590;28;20038;-65
2023/04/13 11:17:17;;;;;;;2.72;0.90;;;14.60;74.00;;;;;;4972946;28;20169;-66
2023/04/13 11:19:54;;;;;;;5.47;1.70;;;14.60;71.70;;;;;;4960930;28;20030;-66
2023/04/13 11:22:22;;;;;;;3.78;1.63;;;14.50;70.90;;;;;;4974184;28;20144;-66
2023/04/13 11:24:50;;;;;;;6.18;1.17;;;14.60;73.60;;;;;;4975792;28;20643;-66
2023/04/13 11:27:20;;;;;;;1.95;0.55;;;14.60;72.60;;;;;;4971520;28;20022;-66
2023/04/13 11:29:59;;;;;;;0.40;0.40;;;14.50;71.70;;;;;;4969619;28;20911;-66
2023/04/13 11:32:25;;;;;;;2.03;0.60;;;14.40;73.30;;;;;;4974630;28;20054;-66
2023/04/13 11:35:06;;;;;;;2.33;0.52;;;14.30;74.40;;;;;;4972139;28;20174;-66
2023/04/13 11:37:43;;;;;;;2.13;0.68;;;14.30;73.20;;;;;;4975154;28;20045;-66
2023/04/13 11:40:16;;;;;;;1.65;0.47;;;14.20;74.90;;;;;;4969621;28;20034;-66
2023/04/13 11:42:47;;;;;;;2.10;0.47;;;14.30;74.80;;;;;;4965691;28;20514;-65
2023/04/13 11:45:15;;;;;;;1.83;0.57;;;14.20;74.90;;;;;;4968424;28;20073;-64
2023/04/13 11:47:41;;;;;;;2.85;0.73;;;14.20;76.60;;;;;;4967626;28;20031;-66
2023/04/13 11:50:09;;;;;;;2.17;1.10;;;14.10;73.50;;;;;;4968374;28;20053;-66
2023/04/13 11:52:36;;;;;;;3.65;1.20;;;14.20;74.90;;;;;;4959383;28;20114;-66
2023/04/13 11:55:03;;;;;;;3.53;0.90;;;14.40;75.00;;;;;;4967379;28;20065;-67
2023/04/13 11:57:31;;;;;;;1.48;0.60;;;14.60;74.00;;;;;;4974388;28;20863;-66
2023/04/13 11:59:58;;;;;;;1.55;0.70;;;14.60;75.00;;;;;;4972101;28;20053;-66
2023/04/13 12:02:28;;;;;;;1.88;0.85;;;14.60;76.20;;;;;;4977139;28;20045;-66
2023/04/13 12:04:54;;;;;;;2.05;0.70;;;14.60;74.20;;;;;;4975061;28;20403;-66
2023/04/13 12:07:20;;;;;;;1.25;0.40;;;14.60;73.40;;;;;;4974060;28;20031;-66
2023/04/13 12:09:49;;;;;;;1.70;0.60;;;14.60;74.60;;;;;;4969664;28;20465;-66
2023/04/13 12:12:15;;;;;;;1.55;0.47;;;14.80;74.10;;;;;;4968618;28;20037;-66
2023/04/13 12:14:41;;;;;;;2.13;0.52;;;15.00;73.50;;;;;;4969976;28;20031;-66
2023/04/13 12:17:11;;;;;;;0.75;0.40;;;15.20;70.90;;;;;;4965412;28;20146;-66
2023/04/13 12:19:40;;;;;;;2.92;0.70;;;15.30;71.70;;;;;;4972131;28;20030;-66
2023/04/13 12:22:06;;;;;;;1.75;0.60;;;15.20;71.40;;;;;;4974496;28;20041;-66
2023/04/13 12:24:35;;;;;;;3.60;0.60;;;15.20;72.80;;;;;;4978684;28;20834;-65
2023/04/13 12:27:04;;;;;;;1.55;0.73;;;15.10;70.70;;;;;;4973650;28;20093;-66
2023/04/13 12:29:31;;;;;;;2.30;0.30;;;15.20;69.60;;;;;;4971760;28;20096;-67
2023/04/13 12:32:02;;;;;;;3.67;0.80;;;15.30;72.30;;;;;;4972792;28;20045;-66
2023/04/13 12:34:28;;;;;;;3.80;0.73;;;15.50;69.10;;;;;;4979115;28;20106;-66
2023/04/13 12:36:54;;;;;;;1.88;0.57;;;15.60;71.20;;;;;;4978947;28;20038;-66
2023/04/13 12:39:20;;;;;;;2.72;0.73;;;15.60;70.90;;;;;;4972881;28;20046;-66
2023/04/13 12:41:46;;;;;;;0.77;0.47;;;15.60;71.00;;;;;;4976628;28;20026;-67
2023/04/13 12:44:11;;;;;;;3.28;1.02;;;15.50;73.30;;;;;;4973165;28;20917;-66
2023/04/13 12:46:38;;;;;;;2.03;0.60;;;15.60;71.00;;;;;;4975391;28;20923;-66
2023/04/13 12:49:03;;;;;;;1.83;0.57;;;15.30;69.70;;;;;;4978437;28;20364;-66
2023/04/13 12:51:30;;;;;;;2.80;0.60;;;15.10;71.20;;;;;;4979368;28;20030;-66
2023/04/13 12:53:56;;;;;;;1.60;0.80;;;15.00;71.20;;;;;;4973616;28;20117;-67
2023/04/13 12:56:23;;;;;;;2.78;0.50;;;14.80;71.20;;;;;;4962886;28;20042;-66
2023/04/13 12:58:49;;;;;;;2.60;0.88;;;14.70;71.90;;;;;;4978576;28;20741;-67
2023/04/13 13:01:14;;;;;;;2.58;0.60;;;14.70;70.60;;;;;;4975240;28;20051;-66
2023/04/13 13:03:40;;;;;;;1.13;0.55;;;14.70;70.00;;;;;;4976957;28;20034;-66